sensor_id;sensor_type;location;lat;lon;timestamp;P1;durP1;ratioP1;P2;durP2;ratioP2
42840;SDS011;28491;46.898;7.660;2023-03-21T00:00:21;4.18;;;2.53;;
42840;SDS011;28491;46.898;7.660;2023-03-21T00:02:46;2.85;;;2.20;;
42840;SDS011;28491;46.898;7.660;2023-03-21T00:05:12;5.30;;;2.65;;
42840;SDS011;28491;46.898;7.660;2023-03-21T00:07:37;3.33;;;2.30;;
42840;SDS011;28491;46.898;7.660;2023-03-21T00:10:03;3.95;;;2.55;;
42840;SDS011;28491;46.898;7.660;2023-03-21T00:12:29;4.18;;;2.20;;
42840;SDS011;28491;46.898;7.660;2023-03-21T00:14:56;5.60;;;3.35;;
42840;SDS011;28491;46.898;7.660;2023-03-21T00:17:28;4.57;;;2.47;;
42840;SDS011;28491;46.898;7.660;2023-03-21T00:19:56;3.08;;;2.60;;
42840;SDS011;28491;46.898;7.660;2023-03-21T00:22:22;5.72;;;2.72;;
42840;SDS011;28491;46.898;7.660;2023-03-21T00:24:49;4.97;;;2.58;;
42840;SDS011;28491;46.898;7.660;2023-03-21T00:27:16;5.05;;;2.33;;
42840;SDS011;28491;46.898;7.660;2023-03-21T00:29:43;6.78;;;2.80;;
42840;SDS011;28491;46.898;7.660;2023-03-21T00:32:09;3.88;;;2.30;;
42840;SDS011;28491;46.898;7.660;2023-03-21T00:34:35;4.07;;;2.55;;
42840;SDS011;28491;46.898;7.660;2023-03-21T00:37:02;4.57;;;2.42;;
42840;SDS011;28491;46.898;7.660;2023-03-21T00:39:31;7.03;;;2.85;;
42840;SDS011;28491;46.898;7.660;2023-03-21T00:41:56;4.75;;;2.97;;
42840;SDS011;28491;46.898;7.660;2023-03-21T00:44:22;6.22;;;2.55;;
42840;SDS011;28491;46.898;7.660;2023-03-21T00:46:49;3.33;;;2.17;;
42840;SDS011;28491;46.898;7.660;2023-03-21T00:49:15;4.75;;;3.42;;
42840;SDS011;28491;46.898;7.660;2023-03-21T00:51:41;3.80;;;2.78;;
42840;SDS011;28491;46.898;7.660;2023-03-21T00:54:08;5.00;;;2.85;;
42840;SDS011;28491;46.898;7.660;2023-03-21T00:56:36;2.67;;;2.05;;
42840;SDS011;28491;46.898;7.660;2023-03-21T00:59:02;3.47;;;2.25;;
42840;SDS011;28491;46.898;7.660;2023-03-21T01:01:28;3.70;;;2.70;;
42840;SDS011;28491;46.898;7.660;2023-03-21T01:03:56;3.80;;;2.78;;
42840;SDS011;28491;46.898;7.660;2023-03-21T01:06:29;5.65;;;3.10;;
42840;SDS011;28491;46.898;7.660;2023-03-21T01:09:03;4.50;;;3.20;;
42840;SDS011;28491;46.898;7.660;2023-03-21T01:11:30;5.18;;;3.13;;
42840;SDS011;28491;46.898;7.660;2023-03-21T01:13:56;4.35;;;2.83;;
42840;SDS011;28491;46.898;7.660;2023-03-21T01:16:22;2.95;;;2.20;;
42840;SDS011;28491;46.898;7.660;2023-03-21T01:18:48;5.00;;;2.20;;
42840;SDS011;28491;46.898;7.660;2023-03-21T01:21:13;5.88;;;2.33;;
42840;SDS011;28491;46.898;7.660;2023-03-21T01:23:40;3.38;;;2.50;;
42840;SDS011;28491;46.898;7.660;2023-03-21T01:26:07;7.20;;;2.78;;
42840;SDS011;28491;46.898;7.660;2023-03-21T01:28:35;4.95;;;2.95;;
42840;SDS011;28491;46.898;7.660;2023-03-21T01:31:02;3.35;;;2.30;;
42840;SDS011;28491;46.898;7.660;2023-03-21T01:33:29;4.20;;;2.53;;
42840;SDS011;28491;46.898;7.660;2023-03-21T01:35:56;3.45;;;2.80;;
42840;SDS011;28491;46.898;7.660;2023-03-21T01:38:22;6.10;;;2.40;;
42840;SDS011;28491;46.898;7.660;2023-03-21T01:40:48;3.47;;;2.53;;
42840;SDS011;28491;46.898;7.660;2023-03-21T01:43:25;5.75;;;2.88;;
42840;SDS011;28491;46.898;7.660;2023-03-21T01:48:32;7.03;;;2.63;;
42840;SDS011;28491;46.898;7.660;2023-03-21T01:51:00;5.43;;;2.77;;
42840;SDS011;28491;46.898;7.660;2023-03-21T01:53:27;4.32;;;2.97;;
42840;SDS011;28491;46.898;7.660;2023-03-21T01:58:23;4.90;;;2.35;;
42840;SDS011;28491;46.898;7.660;2023-03-21T02:00:50;3.20;;;2.15;;
42840;SDS011;28491;46.898;7.660;2023-03-21T02:03:16;3.33;;;2.15;;
42840;SDS011;28491;46.898;7.660;2023-03-21T02:05:53;3.15;;;2.55;;
42840;SDS011;28491;46.898;7.660;2023-03-21T02:08:28;3.05;;;2.30;;
42840;SDS011;28491;46.898;7.660;2023-03-21T02:10:55;3.08;;;2.20;;
42840;SDS011;28491;46.898;7.660;2023-03-21T02:13:21;5.55;;;3.20;;
42840;SDS011;28491;46.898;7.660;2023-03-21T02:19:15;2.85;;;2.03;;
42840;SDS011;28491;46.898;7.660;2023-03-21T02:27:49;3.35;;;2.42;;
42840;SDS011;28491;46.898;7.660;2023-03-21T02:36:16;3.13;;;1.92;;
42840;SDS011;28491;46.898;7.660;2023-03-21T02:39:09;3.35;;;2.38;;
42840;SDS011;28491;46.898;7.660;2023-03-21T02:44:48;2.65;;;2.10;;
42840;SDS011;28491;46.898;7.660;2023-03-21T02:47:20;3.30;;;2.30;;
42840;SDS011;28491;46.898;7.660;2023-03-21T02:55:03;3.70;;;2.45;;
42840;SDS011;28491;46.898;7.660;2023-03-21T02:57:37;3.50;;;2.53;;
42840;SDS011;28491;46.898;7.660;2023-03-21T03:00:04;13.82;;;3.63;;
42840;SDS011;28491;46.898;7.660;2023-03-21T03:02:37;3.35;;;2.30;;
42840;SDS011;28491;46.898;7.660;2023-03-21T03:05:15;3.47;;;2.63;;
42840;SDS011;28491;46.898;7.660;2023-03-21T03:07:47;2.80;;;2.03;;
42840;SDS011;28491;46.898;7.660;2023-03-21T03:10:23;2.75;;;2.17;;
42840;SDS011;28491;46.898;7.660;2023-03-21T03:15:59;3.28;;;2.63;;
42840;SDS011;28491;46.898;7.660;2023-03-21T03:18:46;9.05;;;3.50;;
42840;SDS011;28491;46.898;7.660;2023-03-21T03:21:27;3.67;;;2.70;;
42840;SDS011;28491;46.898;7.660;2023-03-21T03:24:06;4.70;;;3.08;;
42840;SDS011;28491;46.898;7.660;2023-03-21T03:26:48;4.20;;;3.45;;
42840;SDS011;28491;46.898;7.660;2023-03-21T03:29:16;4.68;;;2.88;;
42840;SDS011;28491;46.898;7.660;2023-03-21T03:31:45;2.95;;;2.38;;
42840;SDS011;28491;46.898;7.660;2023-03-21T03:34:20;4.40;;;3.10;;
42840;SDS011;28491;46.898;7.660;2023-03-21T03:36:51;4.25;;;2.83;;
42840;SDS011;28491;46.898;7.660;2023-03-21T03:39:21;4.28;;;2.97;;
42840;SDS011;28491;46.898;7.660;2023-03-21T03:41:57;5.15;;;2.95;;
42840;SDS011;28491;46.898;7.660;2023-03-21T03:44:26;4.53;;;2.85;;
42840;SDS011;28491;46.898;7.660;2023-03-21T03:49:35;4.00;;;2.53;;
42840;SDS011;28491;46.898;7.660;2023-03-21T03:52:32;4.20;;;2.90;;
42840;SDS011;28491;46.898;7.660;2023-03-21T03:55:04;3.38;;;2.67;;
42840;SDS011;28491;46.898;7.660;2023-03-21T03:57:30;3.47;;;2.35;;
42840;SDS011;28491;46.898;7.660;2023-03-21T03:59:56;2.80;;;2.22;;
42840;SDS011;28491;46.898;7.660;2023-03-21T04:02:22;2.70;;;2.13;;
42840;SDS011;28491;46.898;7.660;2023-03-21T04:04:48;3.20;;;2.40;;
42840;SDS011;28491;46.898;7.660;2023-03-21T04:07:17;3.22;;;2.60;;
42840;SDS011;28491;46.898;7.660;2023-03-21T04:09:46;3.83;;;2.88;;
42840;SDS011;28491;46.898;7.660;2023-03-21T04:12:12;5.63;;;2.80;;
42840;SDS011;28491;46.898;7.660;2023-03-21T04:14:38;3.80;;;3.20;;
42840;SDS011;28491;46.898;7.660;2023-03-21T04:17:03;4.90;;;3.40;;
42840;SDS011;28491;46.898;7.660;2023-03-21T04:19:29;6.47;;;2.67;;
42840;SDS011;28491;46.898;7.660;2023-03-21T04:21:55;4.38;;;2.60;;
42840;SDS011;28491;46.898;7.660;2023-03-21T04:24:20;3.70;;;2.55;;
42840;SDS011;28491;46.898;7.660;2023-03-21T04:26:46;5.75;;;2.85;;
42840;SDS011;28491;46.898;7.660;2023-03-21T04:29:11;4.43;;;3.05;;
42840;SDS011;28491;46.898;7.660;2023-03-21T04:31:37;3.58;;;2.28;;
42840;SDS011;28491;46.898;7.660;2023-03-21T04:34:05;4.57;;;2.75;;
42840;SDS011;28491;46.898;7.660;2023-03-21T04:36:36;3.92;;;2.60;;
42840;SDS011;28491;46.898;7.660;2023-03-21T04:39:09;3.97;;;2.33;;
42840;SDS011;28491;46.898;7.660;2023-03-21T04:41:39;4.30;;;2.90;;
42840;SDS011;28491;46.898;7.660;2023-03-21T04:44:05;4.18;;;2.90;;
42840;SDS011;28491;46.898;7.660;2023-03-21T04:46:32;3.65;;;2.30;;
42840;SDS011;28491;46.898;7.660;2023-03-21T04:48:58;4.60;;;2.42;;
42840;SDS011;28491;46.898;7.660;2023-03-21T04:51:24;4.47;;;2.42;;
42840;SDS011;28491;46.898;7.660;2023-03-21T04:53:49;3.60;;;2.38;;
42840;SDS011;28491;46.898;7.660;2023-03-21T04:56:16;3.72;;;2.60;;
42840;SDS011;28491;46.898;7.660;2023-03-21T04:58:42;2.95;;;2.13;;
42840;SDS011;28491;46.898;7.660;2023-03-21T05:01:07;3.10;;;2.38;;
42840;SDS011;28491;46.898;7.660;2023-03-21T05:03:33;4.53;;;2.45;;
42840;SDS011;28491;46.898;7.660;2023-03-21T05:06:04;4.90;;;2.45;;
42840;SDS011;28491;46.898;7.660;2023-03-21T05:08:32;4.43;;;2.60;;
42840;SDS011;28491;46.898;7.660;2023-03-21T05:10:58;3.40;;;2.63;;
42840;SDS011;28491;46.898;7.660;2023-03-21T05:13:24;3.67;;;2.60;;
42840;SDS011;28491;46.898;7.660;2023-03-21T05:15:49;4.00;;;2.75;;
42840;SDS011;28491;46.898;7.660;2023-03-21T05:18:15;4.35;;;3.15;;
42840;SDS011;28491;46.898;7.660;2023-03-21T05:20:49;3.75;;;2.30;;
42840;SDS011;28491;46.898;7.660;2023-03-21T05:23:18;3.25;;;2.38;;
42840;SDS011;28491;46.898;7.660;2023-03-21T05:25:45;7.40;;;4.47;;
42840;SDS011;28491;46.898;7.660;2023-03-21T05:28:10;5.78;;;4.03;;
42840;SDS011;28491;46.898;7.660;2023-03-21T05:30:36;8.52;;;3.25;;
42840;SDS011;28491;46.898;7.660;2023-03-21T05:33:02;3.65;;;2.60;;
42840;SDS011;28491;46.898;7.660;2023-03-21T05:35:28;5.05;;;2.88;;
42840;SDS011;28491;46.898;7.660;2023-03-21T05:37:54;4.55;;;2.47;;
42840;SDS011;28491;46.898;7.660;2023-03-21T05:40:20;5.32;;;3.35;;
42840;SDS011;28491;46.898;7.660;2023-03-21T05:42:46;4.30;;;3.42;;
42840;SDS011;28491;46.898;7.660;2023-03-21T05:45:12;3.38;;;2.50;;
42840;SDS011;28491;46.898;7.660;2023-03-21T05:47:38;8.20;;;2.70;;
42840;SDS011;28491;46.898;7.660;2023-03-21T05:50:03;14.15;;;3.13;;
42840;SDS011;28491;46.898;7.660;2023-03-21T05:52:29;4.47;;;3.58;;
42840;SDS011;28491;46.898;7.660;2023-03-21T05:54:55;5.05;;;3.58;;
42840;SDS011;28491;46.898;7.660;2023-03-21T05:57:20;6.70;;;3.28;;
42840;SDS011;28491;46.898;7.660;2023-03-21T05:59:46;5.55;;;3.38;;
42840;SDS011;28491;46.898;7.660;2023-03-21T06:02:12;6.43;;;3.28;;
42840;SDS011;28491;46.898;7.660;2023-03-21T06:04:37;4.00;;;3.00;;
42840;SDS011;28491;46.898;7.660;2023-03-21T06:07:03;3.33;;;2.55;;
42840;SDS011;28491;46.898;7.660;2023-03-21T06:09:28;3.67;;;2.45;;
42840;SDS011;28491;46.898;7.660;2023-03-21T06:11:55;4.45;;;2.95;;
42840;SDS011;28491;46.898;7.660;2023-03-21T06:14:21;3.40;;;2.38;;
42840;SDS011;28491;46.898;7.660;2023-03-21T06:16:48;3.60;;;2.60;;
42840;SDS011;28491;46.898;7.660;2023-03-21T06:19:14;4.53;;;2.55;;
42840;SDS011;28491;46.898;7.660;2023-03-21T06:21:40;3.45;;;2.80;;
42840;SDS011;28491;46.898;7.660;2023-03-21T06:24:06;3.88;;;2.67;;
42840;SDS011;28491;46.898;7.660;2023-03-21T06:26:32;3.30;;;2.38;;
42840;SDS011;28491;46.898;7.660;2023-03-21T06:28:58;6.40;;;2.40;;
42840;SDS011;28491;46.898;7.660;2023-03-21T06:31:23;5.43;;;2.20;;
42840;SDS011;28491;46.898;7.660;2023-03-21T06:33:50;3.83;;;2.00;;
42840;SDS011;28491;46.898;7.660;2023-03-21T06:36:16;5.20;;;2.67;;
42840;SDS011;28491;46.898;7.660;2023-03-21T06:38:42;4.10;;;2.47;;
42840;SDS011;28491;46.898;7.660;2023-03-21T06:41:08;5.35;;;3.25;;
42840;SDS011;28491;46.898;7.660;2023-03-21T06:43:34;3.35;;;1.92;;
42840;SDS011;28491;46.898;7.660;2023-03-21T06:45:59;3.63;;;2.03;;
42840;SDS011;28491;46.898;7.660;2023-03-21T06:48:25;5.55;;;2.20;;
42840;SDS011;28491;46.898;7.660;2023-03-21T06:50:52;4.47;;;3.13;;
42840;SDS011;28491;46.898;7.660;2023-03-21T06:53:19;3.75;;;2.63;;
42840;SDS011;28491;46.898;7.660;2023-03-21T06:55:48;3.55;;;2.58;;
42840;SDS011;28491;46.898;7.660;2023-03-21T06:58:14;3.00;;;2.10;;
42840;SDS011;28491;46.898;7.660;2023-03-21T07:00:40;3.85;;;2.50;;
42840;SDS011;28491;46.898;7.660;2023-03-21T07:03:06;5.80;;;3.25;;
42840;SDS011;28491;46.898;7.660;2023-03-21T07:05:33;5.88;;;3.90;;
42840;SDS011;28491;46.898;7.660;2023-03-21T07:07:59;6.78;;;4.43;;
42840;SDS011;28491;46.898;7.660;2023-03-21T07:10:25;7.50;;;4.50;;
42840;SDS011;28491;46.898;7.660;2023-03-21T07:12:50;6.18;;;4.10;;
42840;SDS011;28491;46.898;7.660;2023-03-21T07:15:16;5.95;;;3.83;;
42840;SDS011;28491;46.898;7.660;2023-03-21T07:17:42;8.20;;;3.83;;
42840;SDS011;28491;46.898;7.660;2023-03-21T07:20:07;6.65;;;5.05;;
42840;SDS011;28491;46.898;7.660;2023-03-21T07:22:36;5.07;;;3.67;;
42840;SDS011;28491;46.898;7.660;2023-03-21T07:25:02;4.35;;;2.83;;
42840;SDS011;28491;46.898;7.660;2023-03-21T07:27:28;4.25;;;3.10;;
42840;SDS011;28491;46.898;7.660;2023-03-21T07:29:53;3.72;;;2.63;;
42840;SDS011;28491;46.898;7.660;2023-03-21T07:32:19;4.35;;;2.47;;
42840;SDS011;28491;46.898;7.660;2023-03-21T07:34:44;5.05;;;2.33;;
42840;SDS011;28491;46.898;7.660;2023-03-21T07:37:10;3.65;;;1.98;;
42840;SDS011;28491;46.898;7.660;2023-03-21T07:39:36;3.70;;;2.15;;
42840;SDS011;28491;46.898;7.660;2023-03-21T07:42:02;3.60;;;2.70;;
42840;SDS011;28491;46.898;7.660;2023-03-21T07:44:27;3.47;;;2.47;;
42840;SDS011;28491;46.898;7.660;2023-03-21T07:46:54;2.50;;;1.80;;
42840;SDS011;28491;46.898;7.660;2023-03-21T07:49:20;4.20;;;2.42;;
42840;SDS011;28491;46.898;7.660;2023-03-21T07:51:45;4.50;;;2.10;;
42840;SDS011;28491;46.898;7.660;2023-03-21T07:54:11;4.05;;;2.33;;
42840;SDS011;28491;46.898;7.660;2023-03-21T07:56:36;5.03;;;2.25;;
42840;SDS011;28491;46.898;7.660;2023-03-21T07:59:02;2.63;;;1.88;;
42840;SDS011;28491;46.898;7.660;2023-03-21T08:01:29;6.82;;;2.53;;
42840;SDS011;28491;46.898;7.660;2023-03-21T08:03:55;2.80;;;1.95;;
42840;SDS011;28491;46.898;7.660;2023-03-21T08:06:20;3.33;;;1.98;;
42840;SDS011;28491;46.898;7.660;2023-03-21T08:08:46;6.63;;;1.88;;
42840;SDS011;28491;46.898;7.660;2023-03-21T08:11:12;3.10;;;2.10;;
42840;SDS011;28491;46.898;7.660;2023-03-21T08:13:38;3.35;;;2.20;;
42840;SDS011;28491;46.898;7.660;2023-03-21T08:16:04;2.75;;;1.73;;
42840;SDS011;28491;46.898;7.660;2023-03-21T08:18:31;3.45;;;1.80;;
42840;SDS011;28491;46.898;7.660;2023-03-21T08:20:56;3.05;;;1.98;;
42840;SDS011;28491;46.898;7.660;2023-03-21T08:23:22;2.53;;;1.70;;
42840;SDS011;28491;46.898;7.660;2023-03-21T08:25:49;2.65;;;1.90;;
42840;SDS011;28491;46.898;7.660;2023-03-21T08:28:17;3.50;;;2.13;;
42840;SDS011;28491;46.898;7.660;2023-03-21T08:30:42;2.83;;;2.00;;
42840;SDS011;28491;46.898;7.660;2023-03-21T08:33:08;3.25;;;1.98;;
42840;SDS011;28491;46.898;7.660;2023-03-21T08:35:34;8.52;;;4.78;;
42840;SDS011;28491;46.898;7.660;2023-03-21T08:38:02;4.13;;;3.00;;
42840;SDS011;28491;46.898;7.660;2023-03-21T08:40:28;13.38;;;3.40;;
42840;SDS011;28491;46.898;7.660;2023-03-21T08:42:54;5.47;;;1.83;;
42840;SDS011;28491;46.898;7.660;2023-03-21T08:45:20;3.78;;;1.75;;
42840;SDS011;28491;46.898;7.660;2023-03-21T08:47:46;5.47;;;2.28;;
42840;SDS011;28491;46.898;7.660;2023-03-21T08:50:13;5.30;;;2.03;;
42840;SDS011;28491;46.898;7.660;2023-03-21T08:52:42;12.38;;;2.40;;
42840;SDS011;28491;46.898;7.660;2023-03-21T08:55:09;5.88;;;2.70;;
42840;SDS011;28491;46.898;7.660;2023-03-21T08:57:35;4.25;;;2.13;;
42840;SDS011;28491;46.898;7.660;2023-03-21T09:00:01;4.30;;;2.88;;
42840;SDS011;28491;46.898;7.660;2023-03-21T09:02:31;5.90;;;3.22;;
42840;SDS011;28491;46.898;7.660;2023-03-21T09:04:57;4.32;;;2.00;;
42840;SDS011;28491;46.898;7.660;2023-03-21T09:07:23;5.28;;;2.15;;
42840;SDS011;28491;46.898;7.660;2023-03-21T09:09:49;3.17;;;2.05;;
42840;SDS011;28491;46.898;7.660;2023-03-21T09:12:17;4.18;;;2.10;;
42840;SDS011;28491;46.898;7.660;2023-03-21T09:14:42;5.70;;;2.88;;
42840;SDS011;28491;46.898;7.660;2023-03-21T09:17:08;6.53;;;3.08;;
42840;SDS011;28491;46.898;7.660;2023-03-21T09:19:33;3.47;;;2.10;;
42840;SDS011;28491;46.898;7.660;2023-03-21T09:21:59;3.25;;;2.22;;
42840;SDS011;28491;46.898;7.660;2023-03-21T09:24:25;3.20;;;2.33;;
42840;SDS011;28491;46.898;7.660;2023-03-21T09:26:50;4.65;;;2.50;;
42840;SDS011;28491;46.898;7.660;2023-03-21T09:29:17;4.20;;;2.42;;
42840;SDS011;28491;46.898;7.660;2023-03-21T09:31:47;3.88;;;2.58;;
42840;SDS011;28491;46.898;7.660;2023-03-21T09:34:12;2.60;;;1.80;;
42840;SDS011;28491;46.898;7.660;2023-03-21T09:36:39;2.17;;;1.65;;
42840;SDS011;28491;46.898;7.660;2023-03-21T09:39:07;2.75;;;1.52;;
42840;SDS011;28491;46.898;7.660;2023-03-21T09:49:45;2.28;;;1.60;;
42840;SDS011;28491;46.898;7.660;2023-03-21T09:52:24;3.13;;;1.80;;
42840;SDS011;28491;46.898;7.660;2023-03-21T09:54:56;2.90;;;1.70;;
42840;SDS011;28491;46.898;7.660;2023-03-21T09:59:56;3.20;;;2.00;;
42840;SDS011;28491;46.898;7.660;2023-03-21T10:05:14;2.35;;;1.90;;
42840;SDS011;28491;46.898;7.660;2023-03-21T10:07:44;2.95;;;1.45;;
42840;SDS011;28491;46.898;7.660;2023-03-21T10:10:21;2.78;;;1.63;;
42840;SDS011;28491;46.898;7.660;2023-03-21T10:12:53;2.63;;;1.83;;
42840;SDS011;28491;46.898;7.660;2023-03-21T10:15:21;4.90;;;1.60;;
42840;SDS011;28491;46.898;7.660;2023-03-21T10:17:50;2.97;;;1.90;;
42840;SDS011;28491;46.898;7.660;2023-03-21T10:20:22;3.47;;;2.00;;
42840;SDS011;28491;46.898;7.660;2023-03-21T10:22:51;2.50;;;1.50;;
42840;SDS011;28491;46.898;7.660;2023-03-21T10:28:00;2.78;;;2.22;;
42840;SDS011;28491;46.898;7.660;2023-03-21T10:30:29;2.85;;;1.80;;
42840;SDS011;28491;46.898;7.660;2023-03-21T10:32:57;2.70;;;1.85;;
42840;SDS011;28491;46.898;7.660;2023-03-21T10:35:28;2.50;;;1.67;;
42840;SDS011;28491;46.898;7.660;2023-03-21T10:37:57;3.55;;;1.90;;
42840;SDS011;28491;46.898;7.660;2023-03-21T10:40:27;3.83;;;1.83;;
42840;SDS011;28491;46.898;7.660;2023-03-21T10:43:16;3.08;;;1.95;;
42840;SDS011;28491;46.898;7.660;2023-03-21T10:45:45;2.67;;;1.85;;
42840;SDS011;28491;46.898;7.660;2023-03-21T10:48:11;3.47;;;1.90;;
42840;SDS011;28491;46.898;7.660;2023-03-21T10:50:37;2.80;;;1.90;;
42840;SDS011;28491;46.898;7.660;2023-03-21T10:53:05;2.47;;;1.92;;
42840;SDS011;28491;46.898;7.660;2023-03-21T10:55:44;4.07;;;2.65;;
42840;SDS011;28491;46.898;7.660;2023-03-21T10:58:16;3.17;;;2.00;;
42840;SDS011;28491;46.898;7.660;2023-03-21T11:00:49;3.40;;;2.00;;
42840;SDS011;28491;46.898;7.660;2023-03-21T11:03:22;3.55;;;1.98;;
42840;SDS011;28491;46.898;7.660;2023-03-21T11:05:55;3.50;;;1.98;;
42840;SDS011;28491;46.898;7.660;2023-03-21T11:08:29;2.03;;;1.60;;
42840;SDS011;28491;46.898;7.660;2023-03-21T11:11:06;3.00;;;1.80;;
42840;SDS011;28491;46.898;7.660;2023-03-21T11:13:40;2.15;;;1.58;;
42840;SDS011;28491;46.898;7.660;2023-03-21T11:16:08;2.22;;;1.80;;
42840;SDS011;28491;46.898;7.660;2023-03-21T11:18:51;4.95;;;2.00;;
42840;SDS011;28491;46.898;7.660;2023-03-21T11:21:20;2.90;;;2.08;;
42840;SDS011;28491;46.898;7.660;2023-03-21T11:23:51;3.70;;;2.40;;
42840;SDS011;28491;46.898;7.660;2023-03-21T11:26:21;4.63;;;2.13;;
42840;SDS011;28491;46.898;7.660;2023-03-21T11:28:52;2.20;;;1.75;;
42840;SDS011;28491;46.898;7.660;2023-03-21T11:31:19;4.15;;;1.95;;
42840;SDS011;28491;46.898;7.660;2023-03-21T11:33:52;2.22;;;1.70;;
42840;SDS011;28491;46.898;7.660;2023-03-21T11:38:56;3.88;;;1.95;;
42840;SDS011;28491;46.898;7.660;2023-03-21T11:41:24;2.45;;;1.83;;
42840;SDS011;28491;46.898;7.660;2023-03-21T11:43:54;2.63;;;2.05;;
42840;SDS011;28491;46.898;7.660;2023-03-21T11:46:24;2.47;;;1.60;;
42840;SDS011;28491;46.898;7.660;2023-03-21T11:48:51;3.15;;;1.90;;
42840;SDS011;28491;46.898;7.660;2023-03-21T11:51:25;4.25;;;1.80;;
42840;SDS011;28491;46.898;7.660;2023-03-21T11:54:11;1.88;;;1.40;;
42840;SDS011;28491;46.898;7.660;2023-03-21T11:56:44;3.92;;;1.83;;
42840;SDS011;28491;46.898;7.660;2023-03-21T12:04:37;2.08;;;1.40;;
42840;SDS011;28491;46.898;7.660;2023-03-21T12:12:40;2.13;;;1.60;;
42840;SDS011;28491;46.898;7.660;2023-03-21T12:34:05;3.40;;;2.28;;
42840;SDS011;28491;46.898;7.660;2023-03-21T12:39:38;2.75;;;1.70;;
42840;SDS011;28491;46.898;7.660;2023-03-21T12:42:23;3.05;;;1.90;;
42840;SDS011;28491;46.898;7.660;2023-03-21T12:48:10;4.78;;;2.00;;
42840;SDS011;28491;46.898;7.660;2023-03-21T12:50:56;3.00;;;1.73;;
42840;SDS011;28491;46.898;7.660;2023-03-21T12:53:41;1.90;;;1.60;;
42840;SDS011;28491;46.898;7.660;2023-03-21T12:56:09;3.08;;;1.80;;
42840;SDS011;28491;46.898;7.660;2023-03-21T12:58:44;2.55;;;1.88;;
42840;SDS011;28491;46.898;7.660;2023-03-21T13:01:16;4.80;;;2.00;;
42840;SDS011;28491;46.898;7.660;2023-03-21T13:03:45;3.03;;;2.28;;
42840;SDS011;28491;46.898;7.660;2023-03-21T13:06:16;3.00;;;2.30;;
42840;SDS011;28491;46.898;7.660;2023-03-21T13:11:18;4.78;;;1.90;;
42840;SDS011;28491;46.898;7.660;2023-03-21T13:16:47;2.72;;;2.20;;
42840;SDS011;28491;46.898;7.660;2023-03-21T13:19:41;2.20;;;1.70;;
42840;SDS011;28491;46.898;7.660;2023-03-21T13:22:21;2.92;;;1.92;;
42840;SDS011;28491;46.898;7.660;2023-03-21T13:25:04;2.10;;;1.70;;
42840;SDS011;28491;46.898;7.660;2023-03-21T13:30:03;2.35;;;1.90;;
42840;SDS011;28491;46.898;7.660;2023-03-21T13:32:42;7.40;;;1.90;;
42840;SDS011;28491;46.898;7.660;2023-03-21T13:35:13;2.20;;;1.70;;
42840;SDS011;28491;46.898;7.660;2023-03-21T13:38:01;4.63;;;2.30;;
42840;SDS011;28491;46.898;7.660;2023-03-21T13:40:37;3.00;;;1.90;;
42840;SDS011;28491;46.898;7.660;2023-03-21T13:46:10;2.67;;;2.20;;
42840;SDS011;28491;46.898;7.660;2023-03-21T13:48:59;2.58;;;2.17;;
42840;SDS011;28491;46.898;7.660;2023-03-21T13:54:02;3.20;;;2.00;;
42840;SDS011;28491;46.898;7.660;2023-03-21T13:56:27;2.35;;;1.95;;
42840;SDS011;28491;46.898;7.660;2023-03-21T13:58:58;2.80;;;2.05;;
42840;SDS011;28491;46.898;7.660;2023-03-21T14:01:26;3.08;;;2.10;;
42840;SDS011;28491;46.898;7.660;2023-03-21T14:09:21;3.25;;;2.30;;
42840;SDS011;28491;46.898;7.660;2023-03-21T14:11:54;5.95;;;2.97;;
42840;SDS011;28491;46.898;7.660;2023-03-21T14:14:21;4.35;;;2.70;;
42840;SDS011;28491;46.898;7.660;2023-03-21T14:16:53;4.18;;;2.70;;
42840;SDS011;28491;46.898;7.660;2023-03-21T14:19:19;4.80;;;2.38;;
42840;SDS011;28491;46.898;7.660;2023-03-21T14:21:46;2.53;;;2.08;;
42840;SDS011;28491;46.898;7.660;2023-03-21T14:24:15;3.08;;;2.42;;
42840;SDS011;28491;46.898;7.660;2023-03-21T14:26:43;2.80;;;2.00;;
42840;SDS011;28491;46.898;7.660;2023-03-21T14:29:17;3.70;;;2.25;;
42840;SDS011;28491;46.898;7.660;2023-03-21T14:31:53;2.70;;;2.30;;
42840;SDS011;28491;46.898;7.660;2023-03-21T14:34:20;4.95;;;2.20;;
42840;SDS011;28491;46.898;7.660;2023-03-21T14:36:46;2.80;;;2.17;;
42840;SDS011;28491;46.898;7.660;2023-03-21T14:39:16;2.38;;;1.90;;
42840;SDS011;28491;46.898;7.660;2023-03-21T14:41:49;5.40;;;2.05;;
42840;SDS011;28491;46.898;7.660;2023-03-21T14:44:24;4.35;;;2.17;;
42840;SDS011;28491;46.898;7.660;2023-03-21T14:47:05;3.10;;;1.98;;
42840;SDS011;28491;46.898;7.660;2023-03-21T14:49:34;3.75;;;2.33;;
42840;SDS011;28491;46.898;7.660;2023-03-21T14:52:02;5.65;;;2.40;;
42840;SDS011;28491;46.898;7.660;2023-03-21T14:54:31;3.75;;;2.20;;
42840;SDS011;28491;46.898;7.660;2023-03-21T14:56:58;4.30;;;2.47;;
42840;SDS011;28491;46.898;7.660;2023-03-21T14:59:28;2.35;;;1.90;;
42840;SDS011;28491;46.898;7.660;2023-03-21T15:01:58;2.78;;;1.92;;
42840;SDS011;28491;46.898;7.660;2023-03-21T15:04:27;4.32;;;2.47;;
42840;SDS011;28491;46.898;7.660;2023-03-21T15:06:55;4.28;;;2.45;;
42840;SDS011;28491;46.898;7.660;2023-03-21T15:09:24;2.90;;;2.00;;
42840;SDS011;28491;46.898;7.660;2023-03-21T15:11:51;5.47;;;2.33;;
42840;SDS011;28491;46.898;7.660;2023-03-21T15:14:22;5.40;;;2.65;;
42840;SDS011;28491;46.898;7.660;2023-03-21T15:16:50;3.50;;;2.40;;
42840;SDS011;28491;46.898;7.660;2023-03-21T15:19:18;3.30;;;2.08;;
42840;SDS011;28491;46.898;7.660;2023-03-21T15:21:50;4.30;;;2.63;;
42840;SDS011;28491;46.898;7.660;2023-03-21T15:24:21;5.40;;;2.60;;
42840;SDS011;28491;46.898;7.660;2023-03-21T15:26:56;5.40;;;2.42;;
42840;SDS011;28491;46.898;7.660;2023-03-21T15:29:28;2.30;;;1.83;;
42840;SDS011;28491;46.898;7.660;2023-03-21T15:31:56;4.80;;;2.05;;
42840;SDS011;28491;46.898;7.660;2023-03-21T15:34:24;4.68;;;2.63;;
42840;SDS011;28491;46.898;7.660;2023-03-21T15:36:56;3.30;;;2.08;;
42840;SDS011;28491;46.898;7.660;2023-03-21T15:39:25;3.65;;;2.00;;
42840;SDS011;28491;46.898;7.660;2023-03-21T15:41:59;5.20;;;2.55;;
42840;SDS011;28491;46.898;7.660;2023-03-21T15:44:26;2.65;;;2.00;;
42840;SDS011;28491;46.898;7.660;2023-03-21T15:46:52;4.10;;;2.20;;
42840;SDS011;28491;46.898;7.660;2023-03-21T15:49:19;4.40;;;2.05;;
42840;SDS011;28491;46.898;7.660;2023-03-21T15:54:34;4.00;;;1.75;;
42840;SDS011;28491;46.898;7.660;2023-03-21T15:57:19;5.05;;;2.42;;
42840;SDS011;28491;46.898;7.660;2023-03-21T15:59:53;2.97;;;2.03;;
42840;SDS011;28491;46.898;7.660;2023-03-21T16:02:42;3.28;;;2.17;;
42840;SDS011;28491;46.898;7.660;2023-03-21T16:08:37;7.47;;;1.63;;
42840;SDS011;28491;46.898;7.660;2023-03-21T16:10:50;2.30;;;1.20;;
42840;SDS011;28491;46.898;7.660;2023-03-21T16:13:15;4.20;;;1.25;;
42840;SDS011;28491;46.898;7.660;2023-03-21T16:15:41;3.17;;;1.55;;
42840;SDS011;28491;46.898;7.660;2023-03-21T16:18:07;4.97;;;1.63;;
42840;SDS011;28491;46.898;7.660;2023-03-21T16:20:46;3.03;;;1.42;;
42840;SDS011;28491;46.898;7.660;2023-03-21T16:23:13;3.53;;;1.70;;
42840;SDS011;28491;46.898;7.660;2023-03-21T16:25:40;8.50;;;4.20;;
42840;SDS011;28491;46.898;7.660;2023-03-21T16:28:14;7.50;;;2.10;;
42840;SDS011;28491;46.898;7.660;2023-03-21T16:30:41;2.00;;;1.80;;
42840;SDS011;28491;46.898;7.660;2023-03-21T16:33:09;3.47;;;2.13;;
42840;SDS011;28491;46.898;7.660;2023-03-21T16:35:36;2.70;;;1.42;;
42840;SDS011;28491;46.898;7.660;2023-03-21T16:38:02;3.10;;;1.40;;
42840;SDS011;28491;46.898;7.660;2023-03-21T16:40:30;4.93;;;2.47;;
42840;SDS011;28491;46.898;7.660;2023-03-21T16:45:23;2.45;;;1.30;;
42840;SDS011;28491;46.898;7.660;2023-03-21T16:47:49;3.92;;;1.30;;
42840;SDS011;28491;46.898;7.660;2023-03-21T16:52:58;4.88;;;1.45;;
42840;SDS011;28491;46.898;7.660;2023-03-21T16:55:24;3.92;;;1.70;;
42840;SDS011;28491;46.898;7.660;2023-03-21T16:57:50;3.42;;;1.67;;